Latest Coastal Weather Observations for Stenhouse Bay

IDS60701

Issued at 7:51 pm CST Friday 27 May 2016 (issued every 10 minutes, with the page automatically refreshed every 10 minutes)

About coastal observations | Map of coastal stations | Coastal observations for SA | Marine services | Other Formats
Station Details ID: 022049 Name: STENHOUSE BAY Lat: -35.28 Lon: 136.94 Height: 42.0 m
Data from the previous 72 hours. | See also: Recent months at Stenhouse Bay
Date/Time
CST
Temp

°C
Wind Pressure Rain
since 9am
mm
Weather Cloud Vis
km
Sea
Height
m
Swell
Dir
 
Speed
knots
Gust
knots
hPa Trend Height
m
Period
s
Dir
27/07:30pm 14.0 SW 22 32 1009.4 - 7.0 - - - - - - -
27/07:12pm 14.1 SW 22 32 1009.2 - 7.0 - - - - - - -
27/07:00pm 13.9 SW 25 34 1009.0 - 7.0 - - - - - - -
27/06:39pm 14.0 SW 25 35 1008.8 - 7.0 - - - - - - -
27/06:30pm 13.8 SW 26 33 1008.6 - 7.0 - - - - - - -
27/06:00pm 13.6 SW 18 30 1008.2 - 7.0 - - - - - - -
27/05:30pm 13.6 SW 21 31 1008.2 - 7.0 - - - - - - -
27/05:00pm 12.9 SW 22 30 1007.9 - 7.0 - - - - - - -
27/04:39pm 12.5 SW 17 28 1007.8 - 7.0 - - - - - - -
27/04:30pm 12.1 SSW 17 25 1007.6 - 6.8 - - - - - - -
27/04:00pm 11.7 SW 22 33 1007.2 - 6.2 - - - - - - -
27/03:33pm 11.1 SW 21 31 1007.0 - 5.4 - - - - - - -
27/03:30pm 11.2 SW 22 31 1006.9 - 5.4 - - - - - - -
27/03:04pm 11.9 WSW 16 29 1006.4 - 4.8 - - - - - - -
27/03:00pm 11.8 WSW 18 27 1006.4 - 4.8 Rain - - - - - -
27/02:34pm 13.7 WSW 20 32 1006.3 - 4.6 - - - - - - -
27/02:30pm 13.4 WSW 20 29 1006.3 - 4.6 - - - - - - -
27/02:00pm 14.0 WSW 23 36 1006.1 - 4.6 - - - - - - -
27/01:40pm 13.4 WSW 22 33 1006.1 - 4.6 - - - - - - -
27/01:30pm 13.0 WSW 23 31 1006.1 - 4.6 - - - - - - -
27/01:10pm 13.9 WSW 20 31 1006.1 - 4.6 - - - - - - -
27/01:00pm 12.5 WSW 21 28 1006.1 - 4.6 - - - - - - -
27/12:30pm 11.2 WSW 18 26 1006.4 - 4.6 - - - - - - -
27/12:14pm 12.0 SW 19 30 1006.6 - 4.0 - - - - - - -
27/12:00pm 11.2 WSW 14 22 1006.3 - 3.8 Recent precip. - - - - - -
27/11:31am 10.0 WSW 19 29 1007.8 - 3.6 - - - - - - -
27/11:30am 10.1 WSW 18 27 1007.9 - 3.6 - - - - - - -
27/11:02am 10.4 WSW 15 25 1008.2 - 2.6 - - - - - - -
27/11:00am 10.5 WSW 16 25 1008.2 - 2.6 - - - - - - -
27/10:38am 11.8 WSW 16 33 1007.8 - 0.2 - - - - - - -
27/10:30am 12.8 WSW 13 18 1007.7 - 0.0 - - - - - - -
27/10:07am 13.0 WSW 18 29 1007.7 - 0.0 - - - - - - -
27/10:00am 12.7 W 16 27 1007.6 - 0.0 - - - - - - -
27/09:49am 13.2 WNW 15 26 1007.6 - 0.0 - - - - - - -
27/09:30am 13.6 W 18 26 1007.5 - 0.0 - - - - - - -
27/09:00am 15.2 W 12 18 1007.4 - - - - - - - - -
27/08:30am 14.0 W 11 17 1007.3 - - - - - - - - -
27/08:00am 13.4 W 14 21 1007.4 - - - - - - - - -
27/07:30am 13.0 W 13 20 1007.5 - - - - - - - - -
27/07:00am 12.8 W 13 20 1007.5 - - - - - - - - -
27/06:48am 12.8 W 15 25 1007.5 - - - - - - - - -
27/06:30am 12.6 W 13 19 1007.4 - - - - - - - - -
27/06:05am 12.4 W 15 25 1007.6 - - - - - - - - -
27/06:00am 12.5 W 14 22 1007.6 - - Recent precip. - - - - - -
27/05:30am 12.2 WNW 13 21 1007.5 - - - - - - - - -
27/05:00am 12.9 NW 15 27 1007.5 - - - - - - - - -
27/04:59am 12.9 NW 15 27 1007.5 - - - - - - - - -
27/04:30am 12.8 NW 12 16 1007.8 - - - - - - - - -
27/04:00am 12.9 WNW 11 17 1007.9 - - - - - - - - -
27/03:30am 13.0 WNW 11 19 1008.4 - - - - - - - - -
27/03:00am 13.4 NW 13 21 1008.6 - 1.0 Recent precip. - - - - - -
27/02:30am 12.7 NW 7 10 1008.8 - - - - - - - - -
27/02:04am 12.7 NW 10 24 1008.7 - - - - - - - - -
27/02:00am 13.3 NW 7 11 1008.8 - - - - - - - - -
27/01:30am 12.5 NNW 8 10 1009.0 - - - - - - - - -
27/01:00am 11.8 NW 8 9 1009.4 - - - - - - - - -
27/12:30am 11.4 NW 6 7 1009.9 - - - - - - - - -
27/12:00am 11.1 NW 7 8 1010.3 - - - - - - - - -
 
Date/Time
CST
Temp

°C
Wind Pressure Rain
since 9am
mm
Weather Cloud Vis
km
Sea
Height
m
Swell
Dir
 
Speed
knots
Gust
knots
hPa Trend Height
m
Period
s
Dir
26/11:30pm 11.2 NW 7 7 1010.5 - - - - - - - - -
26/11:00pm 11.0 NW 7 7 1010.6 - - - - - - - - -
26/10:30pm 11.3 NW 7 8 1010.8 - - - - - - - - -
26/10:00pm 11.4 WNW 8 9 1011.1 - - - - - - - - -
26/09:30pm 11.6 WNW 7 9 1011.3 - - - - - - - - -
26/09:00pm 12.1 WNW 5 7 1011.4 - 0.6 Recent precip. - - - - - -
26/08:30pm 12.8 NW 6 8 1011.6 - - - - - - - - -
26/08:00pm 12.6 W 6 7 1011.8 - - - - - - - - -
26/07:30pm 12.8 W 7 8 1011.4 - - - - - - - - -
26/07:00pm 13.3 W 7 8 1011.2 - - - - - - - - -
26/06:30pm 13.2 W 7 9 1011.1 - - - - - - - - -
26/06:00pm 13.3 W 7 9 1010.7 - - - - - - - - -
26/05:30pm 13.7 W 7 9 1010.2 - - - - - - - - -
26/05:00pm 14.9 W 6 11 1010.2 - - - - - - - - -
26/04:30pm 16.0 WSW 9 14 1010.2 - - - - - - - - -
26/04:00pm 16.4 W 10 15 1009.9 - - - - - - - - -
26/03:30pm 16.9 W 9 13 1009.7 - - - - - - - - -
26/03:00pm 16.5 WSW 10 15 1009.7 - - - - - - - - -
26/02:30pm 16.9 WSW 10 16 1009.4 - - - - - - - - -
26/12:30pm 16.5 SSW 6 8 1010.2 - 0.0 - - - - - - -
26/12:00pm 16.8 WSW 10 14 1010.1 - 0.0 - - - - - - -
26/11:30am 15.9 WSW 8 12 1010.3 - 0.0 - - - - - - -
26/11:00am 15.6 SW 8 12 1010.4 - 0.0 - - - - - - -
26/10:30am 15.6 SSW 5 6 1010.4 - 0.0 - - - - - - -
26/10:00am 15.4 SSW 7 10 1010.3 - 0.0 - - - - - - -
26/09:30am 15.4 SSW 6 10 1010.1 - 0.0 - - - - - - -
26/09:00am 14.3 SW 4 6 1009.8 - 7.8 - - - - - - -
26/08:30am 13.8 S 8 10 1009.6 - 7.8 - - - - - - -
26/08:00am 13.8 SSW 10 14 1009.3 - 7.8 - - - - - - -
26/07:30am 13.4 SW 9 15 1009.2 - 7.6 - - - - - - -
26/07:00am 13.2 SW 7 10 1009.0 - 7.6 - - - - - - -
26/06:30am 13.0 SSW 7 10 1009.0 - 7.4 - - - - - - -
26/06:00am 13.1 SW 9 14 1008.8 - 7.4 - - - - - - -
26/05:30am 12.8 SW 8 13 1008.7 - 7.4 - - - - - - -
26/05:00am 12.2 SW 18 28 1008.5 - 7.4 - - - - - - -
26/04:54am 12.9 SW 16 28 1008.3 - 7.0 - - - - - - -
26/04:30am 13.4 SSW 11 16 1008.0 - 7.0 - - - - - - -
26/04:00am 13.0 SSW 7 13 1008.0 - 7.0 - - - - - - -
26/03:30am 13.5 SSW 7 11 1008.0 - 4.4 - - - - - - -
26/03:00am 13.0 SSW 6 9 1008.0 - 4.2 - - - - - - -
26/02:30am 13.2 SSW 10 19 1007.9 - 4.2 - - - - - - -
26/02:29am 13.2 SSW 9 19 1007.9 - 4.2 - - - - - - -
26/02:00am 14.0 SSW 5 7 1007.5 - 4.2 - - - - - - -
26/01:30am 13.7 SW 4 6 1007.3 - 4.2 - - - - - - -
26/01:00am 13.8 SSW 6 8 1007.4 - 4.2 - - - - - - -
26/12:30am 14.0 S 7 8 1007.5 - 4.2 - - - - - - -
26/12:00am 14.2 S 10 11 1007.5 - 4.2 - - - - - - -
 
Date/Time
CST
Temp

°C
Wind Pressure Rain
since 9am
mm
Weather Cloud Vis
km
Sea
Height
m
Swell
Dir
 
Speed
knots
Gust
knots
hPa Trend Height
m
Period
s
Dir
25/11:30pm 13.8 S 6 8 1007.5 - 4.2 - - - - - - -
25/11:00pm 13.2 SSW 2 4 1007.5 - 4.2 - - - - - - -
25/10:30pm 13.2 SW 4 5 1007.4 - 4.2 - - - - - - -
25/10:00pm 13.8 WNW 4 4 1008.1 - 4.2 - - - - - - -
25/09:30pm 14.2 SSW 3 4 1007.6 - 4.2 - - - - - - -
25/09:00pm 14.3 S 6 8 1007.0 - 4.2 - - - - - - -
25/08:30pm 14.6 S 7 10 1006.6 - 4.2 - - - - - - -
25/08:00pm 14.5 SSW 6 9 1007.0 - 4.2 - - - - - - -
25/07:30pm 14.2 SSW 4 5 1006.6 - 4.2 - - - - - - -
25/07:00pm 14.5 SSW 4 6 1006.5 - 4.2 - - - - - - -
25/06:30pm 14.6 SW 5 7 1006.7 - 4.2 - - - - - - -
25/06:00pm 14.5 SSW 7 10 1006.3 - 4.2 - - - - - - -
25/05:30pm 14.3 SW 7 10 1006.1 - 4.2 - - - - - - -
25/05:00pm 14.2 SW 7 9 1006.1 - 4.2 - - - - - - -
25/04:30pm 14.3 WSW 6 8 1006.0 - 4.2 - - - - - - -
25/04:00pm 14.6 WSW 5 7 1005.9 - 4.2 - - - - - - -
25/03:30pm 15.0 WNW 9 14 1005.6 - 4.2 - - - - - - -
25/03:00pm 14.9 NW 10 15 1005.7 - 3.4 Rain - - - - - -
25/02:30pm 14.8 NNW 13 17 1005.7 - 2.2 - - - - - - -
25/02:00pm 15.0 NNW 13 18 1005.7 - 2.2 - - - - - - -
25/01:30pm 14.9 NNW 16 22 1006.0 - 1.2 - - - - - - -
25/01:00pm 15.2 NNW 16 23 1006.2 - 0.4 - - - - - - -
25/12:30pm 15.1 NNW 17 23 1006.4 - 0.4 - - - - - - -
25/12:00pm 15.7 NNW 16 22 1007.1 - 0.2 Rain - - - - - -
25/11:30am 15.7 NNW 17 24 1007.6 - 0.0 - - - - - - -
25/11:00am 15.7 NNW 17 22 1007.9 - 0.0 - - - - - - -
25/10:30am 15.9 NNW 17 24 1008.4 - 0.0 - - - - - - -
25/10:00am 15.1 N 18 27 1008.4 - 0.0 - - - - - - -
25/09:52am 15.0 N 18 28 1008.3 - 0.0 - - - - - - -
25/09:30am 14.8 NNW 18 27 1008.6 - 0.0 - - - - - - -
25/09:00am 14.8 NNW 19 26 1009.2 - 2.4 - - - - - - -
25/08:30am 14.4 N 17 25 1008.9 - 2.4 - - - - - - -
25/08:00am 14.2 N 15 22 1009.2 - 2.4 - - - - - - -
25/07:30am 13.3 N 12 19 1009.4 - 2.4 - - - - - - -
25/07:00am 12.8 N 12 17 1009.5 - 2.4 - - - - - - -
25/06:30am 12.5 N 13 17 1009.2 - 2.4 - - - - - - -
25/06:00am 12.9 N 15 22 1009.2 - 2.4 Recent precip. - - - - - -
25/05:30am 13.2 N 12 15 1009.6 - 2.0 - - - - - - -
25/05:00am 13.4 N 14 21 1009.8 - 1.6 - - - - - - -
25/04:30am 13.9 N 15 21 1009.7 - 1.6 - - - - - - -
25/04:00am 13.4 N 16 23 1010.1 - 1.6 - - - - - - -
25/03:30am 13.1 N 11 15 1010.3 - 1.6 - - - - - - -
25/03:00am 13.1 N 14 18 1010.9 - 1.6 Rain - - - - - -
25/02:30am 13.2 N 10 13 1010.7 - 1.4 - - - - - - -
25/02:00am 12.9 N 11 14 1011.0 - 1.2 - - - - - - -
25/01:30am 13.6 NNW 13 18 1011.7 - 0.8 - - - - - - -
25/01:00am 14.7 NNW 13 19 1011.6 - 0.4 - - - - - - -
25/12:30am 15.6 NNW 16 30 1011.7 - 0.2 - - - - - - -
25/12:23am 16.6 NNW 15 25 1011.8 - 0.0 - - - - - - -
25/12:00am 16.9 N 14 19 1011.7 - 0.0 - - - - - - -
 
Date/Time
CST
Temp

°C
Wind Pressure Rain
since 9am
mm
Weather Cloud Vis
km
Sea
Height
m
Swell
Dir
 
Speed
knots
Gust
knots
hPa Trend Height
m
Period
s
Dir
24/11:30pm 17.0 N 15 20 1011.6 - 0.0 - - - - - - -
24/11:00pm 16.6 N 14 18 1011.6 - 0.0 - - - - - - -
24/10:30pm 16.8 N 14 19 1012.2 - 0.0 - - - - - - -
24/10:00pm 16.2 N 13 17 1012.5 - 0.0 - - - - - - -
24/09:30pm 15.6 N 12 16 1012.9 - 0.0 - - - - - - -
24/09:00pm 15.1 N 11 14 1013.0 - 0.0 - - - - - - -
24/08:30pm 15.0 N 12 15 1013.4 - 0.0 - - - - - - -
24/08:00pm 14.7 N 11 14 1013.6 - 0.0 - - - - - - -

Other Formats:

Comma delimited format used in spreadsheet applications
http://www.bom.gov.au/fwo/IDS60701/IDS60701.95806.axf

JavaScript Object Notation format (JSON) in row-major order
http://www.bom.gov.au/fwo/IDS60701/IDS60701.95806.json